Time;durP1;ratioP1;P1;durP2;ratioP2;P2;SDS_P1;SDS_P2;PMS_P1;PMS_P2;Temp;Humidity;BMP_temperature;BMP_pressure;BME280_temperature;BME280_humidity;BME280_pressure;Samples;Min_cycle;Max_cycle;Signal;HPM_P1;HPM_P2
2021/08/24 00:01:36;;;;;;;4.55;3.55;;;18.00;73.60;;;;;;5017271;28;20409;-87
2021/08/24 00:04:02;;;;;;;5.33;3.97;;;17.90;73.70;;;;;;5018339;28;20206;-87
2021/08/24 00:06:28;;;;;;;4.57;4.03;;;17.90;73.80;;;;;;5032945;28;20204;-87
2021/08/24 00:08:54;;;;;;;4.80;4.10;;;17.90;73.90;;;;;;5025318;28;20198;-87
2021/08/24 00:11:19;;;;;;;5.03;3.27;;;17.80;74.00;;;;;;5019289;28;20292;-87
2021/08/24 00:13:45;;;;;;;9.87;3.90;;;17.90;74.10;;;;;;5019858;28;20201;-88
2021/08/24 00:16:14;;;;;;;5.60;4.00;;;17.80;73.90;;;;;;5019331;28;20192;-87
2021/08/24 00:18:40;;;;;;;6.93;4.18;;;17.80;74.10;;;;;;5017605;28;20205;-87
2021/08/24 00:21:06;;;;;;;6.30;4.17;;;17.80;74.20;;;;;;5016877;28;20236;-87
2021/08/24 00:23:32;;;;;;;5.45;3.90;;;17.80;74.30;;;;;;5034446;28;20436;-88
2021/08/24 00:25:59;;;;;;;5.07;4.00;;;17.80;74.40;;;;;;5016775;28;20182;-87
2021/08/24 00:28:26;;;;;;;5.60;3.78;;;17.70;74.30;;;;;;5017456;28;20174;-89
2021/08/24 00:30:52;;;;;;;6.20;4.10;;;17.70;74.40;;;;;;5017135;28;20268;-89
2021/08/24 00:33:19;;;;;;;6.78;4.20;;;17.60;74.50;;;;;;5034714;28;20209;-88
2021/08/24 00:35:46;;;;;;;8.63;4.40;;;17.60;74.60;;;;;;5016919;28;20182;-89
2021/08/24 00:38:14;;;;;;;5.45;4.47;;;17.60;74.60;;;;;;5017238;28;20515;-88
2021/08/24 00:40:41;;;;;;;6.93;4.28;;;17.60;74.60;;;;;;5017467;28;20178;-89
2021/08/24 00:43:10;;;;;;;6.55;4.50;;;17.70;74.50;;;;;;5016584;28;20746;-89
2021/08/24 00:45:43;;;;;;;7.45;4.68;;;17.60;74.60;;;;;;5017206;28;20204;-88
2021/08/24 00:48:10;;;;;;;7.03;4.90;;;17.50;74.70;;;;;;5016784;28;20654;-88
2021/08/24 00:50:45;;;;;;;5.63;4.43;;;17.60;74.80;;;;;;5016829;28;20181;-90
2021/08/24 00:53:16;;;;;;;6.22;4.45;;;17.60;75.60;;;;;;5016151;28;20244;-88
2021/08/24 00:55:45;;;;;;;6.05;4.75;;;17.40;74.90;;;;;;5016964;28;20189;-89
2021/08/24 00:58:13;;;;;;;7.47;5.00;;;17.40;75.10;;;;;;5016714;28;20549;-88
2021/08/24 01:00:40;;;;;;;6.15;4.55;;;17.50;75.30;;;;;;5016316;28;20178;-90
2021/08/24 01:03:18;;;;;;;6.47;3.78;;;17.50;75.20;;;;;;5016201;28;20276;-89
2021/08/24 01:05:46;;;;;;;6.55;4.50;;;17.40;75.00;;;;;;5016803;28;20189;-89
2021/08/24 01:08:29;;;;;;;12.02;4.65;;;17.40;75.00;;;;;;5016515;28;20578;-90
2021/08/24 01:11:13;;;;;;;4.65;4.18;;;17.40;75.10;;;;;;5016618;28;20695;-89
2021/08/24 01:13:54;;;;;;;6.72;4.13;;;17.30;75.10;;;;;;5017006;28;20190;-89
2021/08/24 01:16:43;;;;;;;5.57;4.35;;;17.30;75.30;;;;;;5017612;28;20201;-88
2021/08/24 01:19:11;;;;;;;7.15;4.88;;;17.40;75.30;;;;;;5016616;28;20174;-88
2021/08/24 01:22:11;;;;;;;8.00;5.10;;;17.30;75.40;;;;;;5020090;28;20598;-89
2021/08/24 01:25:05;;;;;;;5.97;4.50;;;17.30;75.50;;;;;;5024653;28;20177;-88
2021/08/24 01:27:36;;;;;;;7.65;5.57;;;17.30;75.60;;;;;;5022038;28;20240;-88
2021/08/24 01:30:29;;;;;;;6.60;4.90;;;17.40;75.40;;;;;;5016442;28;20576;-86
2021/08/24 01:33:00;;;;;;;10.73;4.93;;;17.40;75.30;;;;;;5015902;28;20225;-89
2021/08/24 01:35:42;;;;;;;7.47;5.85;;;17.30;75.30;;;;;;5015957;28;20185;-87
2021/08/24 01:38:14;;;;;;;9.95;5.10;;;17.20;75.30;;;;;;5015190;28;20189;-88
2021/08/24 01:40:44;;;;;;;6.95;5.40;;;17.20;75.40;;;;;;5016089;28;20797;-88
2021/08/24 01:43:14;;;;;;;8.35;4.75;;;17.10;75.70;;;;;;5033917;28;20566;-88
2021/08/24 01:45:48;;;;;;;6.97;5.30;;;17.10;76.00;;;;;;5016223;28;20273;-88
2021/08/24 01:48:16;;;;;;;8.68;4.93;;;17.10;75.90;;;;;;5015940;28;20599;-88
2021/08/24 01:50:53;;;;;;;8.23;4.88;;;17.10;75.80;;;;;;5015934;28;20178;-88
2021/08/24 01:53:43;;;;;;;7.22;5.00;;;17.00;75.70;;;;;;5015656;28;20641;-88
2021/08/24 01:56:15;;;;;;;5.13;4.60;;;17.00;75.80;;;;;;5016231;28;20174;-88
2021/08/24 01:59:03;;;;;;;6.72;5.35;;;16.90;76.00;;;;;;5035676;28;20186;-88
2021/08/24 02:01:37;;;;;;;6.55;4.53;;;16.90;76.20;;;;;;5016071;28;20182;-88
2021/08/24 02:04:18;;;;;;;10.35;5.28;;;17.00;76.20;;;;;;5018915;28;20204;-88
2021/08/24 02:06:46;;;;;;;6.65;4.80;;;17.00;76.20;;;;;;5019298;28;20227;-89
2021/08/24 02:09:19;;;;;;;6.40;5.20;;;17.00;76.10;;;;;;5019263;28;20232;-89
2021/08/24 02:11:45;;;;;;;5.10;4.60;;;16.90;76.20;;;;;;5018699;28;20221;-89
2021/08/24 02:14:15;;;;;;;7.00;5.75;;;16.90;76.10;;;;;;5021418;28;20170;-89
2021/08/24 02:16:44;;;;;;;6.63;5.93;;;16.90;76.20;;;;;;5021901;28;20668;-89
2021/08/24 02:19:14;;;;;;;6.88;5.20;;;16.90;76.20;;;;;;5018760;28;20225;-88
2021/08/24 02:21:50;;;;;;;9.20;4.30;;;16.80;76.20;;;;;;5016852;28;20178;-88
2021/08/24 02:24:20;;;;;;;7.95;5.20;;;16.90;76.20;;;;;;5023095;28;20311;-87
2021/08/24 02:26:48;;;;;;;8.23;5.90;;;16.80;76.30;;;;;;5039593;28;20200;-86
2021/08/24 02:29:15;;;;;;;7.22;4.97;;;16.80;76.40;;;;;;5057367;28;20209;-88
2021/08/24 02:31:51;;;;;;;5.50;5.00;;;16.70;76.40;;;;;;5039125;28;20237;-88
2021/08/24 02:34:52;;;;;;;6.88;5.07;;;16.70;76.60;;;;;;5035033;28;20177;-88
2021/08/24 02:37:20;;;;;;;7.90;5.65;;;16.70;76.80;;;;;;5009489;28;20249;-88
2021/08/24 02:40:12;;;;;;;8.75;5.80;;;16.70;76.80;;;;;;4996316;28;20178;-87
2021/08/24 02:42:48;;;;;;;8.32;5.47;;;16.70;76.60;;;;;;4994940;28;20206;-87
2021/08/24 02:45:23;;;;;;;5.55;4.18;;;16.70;76.70;;;;;;5013562;28;20178;-89
2021/08/24 02:47:51;;;;;;;7.03;6.18;;;16.70;76.60;;;;;;4996257;28;20194;-90
2021/08/24 02:50:17;;;;;;;18.35;5.38;;;16.70;76.70;;;;;;5009740;28;20267;-89
2021/08/24 02:52:44;;;;;;;6.75;5.47;;;16.70;76.60;;;;;;5023146;28;20221;-87
2021/08/24 02:55:11;;;;;;;7.60;4.90;;;16.70;76.70;;;;;;5023068;28;20175;-86
2021/08/24 02:57:37;;;;;;;7.43;6.28;;;16.70;76.60;;;;;;5004468;28;20661;-86
2021/08/24 03:00:05;;;;;;;8.05;5.25;;;16.70;76.50;;;;;;4999288;28;20234;-89
2021/08/24 03:02:31;;;;;;;6.35;5.38;;;16.70;76.60;;;;;;4998607;28;20202;-87
2021/08/24 03:04:57;;;;;;;6.40;5.80;;;16.60;76.60;;;;;;4998989;28;20185;-87
2021/08/24 03:07:27;;;;;;;11.77;6.35;;;16.60;76.50;;;;;;4998916;28;20421;-89
2021/08/24 03:09:56;;;;;;;6.93;6.00;;;16.60;76.70;;;;;;4999028;28;20175;-88
2021/08/24 03:12:21;;;;;;;6.72;5.43;;;16.50;76.70;;;;;;5000725;28;20596;-88
2021/08/24 03:14:57;;;;;;;11.53;6.07;;;16.60;77.00;;;;;;5018528;28;20193;-88
2021/08/24 03:17:33;;;;;;;6.05;5.03;;;16.60;76.80;;;;;;5019838;28;20177;-88
2021/08/24 03:20:03;;;;;;;6.50;5.63;;;16.40;76.90;;;;;;5024351;28;20184;-89
2021/08/24 03:22:29;;;;;;;8.38;5.20;;;16.40;77.20;;;;;;5022044;28;20255;-88
2021/08/24 03:24:58;;;;;;;8.05;5.57;;;16.40;77.20;;;;;;5018491;28;20213;-87
2021/08/24 03:27:24;;;;;;;10.60;5.75;;;16.40;77.30;;;;;;5018807;28;20254;-87
2021/08/24 03:30:00;;;;;;;6.68;5.20;;;16.40;77.20;;;;;;5036590;28;20185;-87
2021/08/24 03:32:26;;;;;;;7.13;5.85;;;16.50;77.20;;;;;;5017766;28;20692;-88
2021/08/24 03:34:52;;;;;;;7.57;5.95;;;16.40;77.00;;;;;;5018583;28;20178;-88
2021/08/24 03:37:17;;;;;;;6.30;5.53;;;16.30;77.30;;;;;;5018226;28;20250;-88
2021/08/24 03:39:46;;;;;;;6.47;5.40;;;16.30;77.60;;;;;;5018423;28;20605;-88
2021/08/24 03:42:12;;;;;;;17.42;6.70;;;16.30;77.60;;;;;;5017769;28;20221;-88
2021/08/24 03:44:37;;;;;;;9.37;5.77;;;16.20;77.70;;;;;;5035969;28;20182;-88
2021/08/24 03:47:03;;;;;;;6.97;5.37;;;16.10;78.00;;;;;;5018006;28;20444;-88
2021/08/24 03:49:29;;;;;;;10.53;6.73;;;16.10;78.10;;;;;;5017998;28;20692;-88
2021/08/24 03:51:55;;;;;;;10.10;5.03;;;16.00;78.00;;;;;;5017846;28;20464;-88
2021/08/24 03:54:20;;;;;;;7.93;6.20;;;16.10;78.20;;;;;;5019624;28;20176;-87
2021/08/24 03:56:46;;;;;;;8.17;6.53;;;16.00;78.20;;;;;;5017841;28;20277;-86
2021/08/24 03:59:12;;;;;;;7.73;6.60;;;15.90;78.50;;;;;;5018283;28;20582;-87
2021/08/24 04:01:38;;;;;;;6.60;5.50;;;15.90;78.50;;;;;;5034537;28;20184;-87
2021/08/24 04:04:04;;;;;;;7.13;4.80;;;16.00;78.50;;;;;;5017519;28;20288;-88
2021/08/24 04:06:29;;;;;;;9.10;5.60;;;16.00;78.40;;;;;;5017855;28;20424;-87
2021/08/24 04:08:55;;;;;;;7.13;5.57;;;16.10;78.30;;;;;;5017304;28;20186;-87
2021/08/24 04:11:21;;;;;;;7.63;5.83;;;16.10;78.20;;;;;;5017185;28;20209;-87
2021/08/24 04:13:46;;;;;;;9.97;6.33;;;16.00;78.00;;;;;;5004006;28;20297;-87
2021/08/24 04:16:13;;;;;;;7.90;5.43;;;16.10;78.00;;;;;;4998408;28;20422;-87
2021/08/24 04:18:41;;;;;;;7.97;5.93;;;16.00;78.50;;;;;;4997720;28;20178;-87
2021/08/24 04:21:14;;;;;;;17.85;6.93;;;16.10;77.70;;;;;;5015552;28;20363;-87
2021/08/24 04:23:42;;;;;;;5.60;5.05;;;16.00;77.60;;;;;;4998232;28;20281;-88
2021/08/24 04:26:09;;;;;;;7.60;5.75;;;16.00;77.80;;;;;;4998030;28;20189;-88
2021/08/24 04:28:35;;;;;;;9.88;5.85;;;16.00;77.70;;;;;;4998054;28;20171;-87
2021/08/24 04:31:09;;;;;;;8.77;5.85;;;16.00;77.70;;;;;;4997832;28;20175;-88
2021/08/24 04:33:36;;;;;;;9.40;5.63;;;16.00;77.80;;;;;;4998673;28;20707;-88
2021/08/24 04:36:03;;;;;;;6.38;5.80;;;16.00;77.50;;;;;;4997581;28;20182;-87
2021/08/24 04:38:29;;;;;;;8.77;6.18;;;15.90;77.40;;;;;;5013426;28;20182;-87
2021/08/24 04:40:55;;;;;;;11.23;5.83;;;15.90;77.40;;;;;;5017175;28;20185;-87
2021/08/24 04:43:21;;;;;;;8.55;5.05;;;15.90;77.40;;;;;;5034493;28;20688;-86
2021/08/24 04:45:48;;;;;;;7.28;6.13;;;16.00;77.20;;;;;;5016859;28;20186;-87
2021/08/24 04:48:14;;;;;;;6.90;5.75;;;15.90;77.10;;;;;;5017461;28;20197;-87
2021/08/24 04:50:40;;;;;;;6.67;5.03;;;15.90;77.10;;;;;;5016726;28;20186;-88
2021/08/24 04:53:06;;;;;;;10.45;6.07;;;15.90;77.10;;;;;;5016365;28;20206;-88
2021/08/24 04:55:33;;;;;;;6.78;5.28;;;15.90;76.90;;;;;;5016660;28;20178;-88
2021/08/24 04:58:01;;;;;;;7.60;6.18;;;15.80;77.00;;;;;;5016872;28;20190;-87
2021/08/24 05:00:27;;;;;;;10.27;5.75;;;15.90;77.10;;;;;;5017479;28;20212;-87
2021/08/24 05:02:53;;;;;;;14.13;7.25;;;15.90;76.90;;;;;;5016590;28;20202;-88
2021/08/24 05:05:19;;;;;;;11.60;7.07;;;15.80;77.50;;;;;;5017520;28;20173;-88
2021/08/24 05:07:45;;;;;;;14.27;6.40;;;15.80;77.00;;;;;;5036649;28;20549;-88
2021/08/24 05:10:11;;;;;;;8.97;5.93;;;15.90;77.10;;;;;;5017129;28;20209;-88
2021/08/24 05:12:36;;;;;;;9.00;5.63;;;15.90;76.70;;;;;;5015647;28;20213;-88
2021/08/24 05:15:06;;;;;;;10.43;6.23;;;15.90;76.70;;;;;;5017515;28;20896;-89
2021/08/24 05:17:32;;;;;;;7.80;6.20;;;15.90;76.40;;;;;;5026353;28;20162;-86
2021/08/24 05:19:58;;;;;;;7.93;5.13;;;16.00;76.30;;;;;;5040786;28;20193;-88
2021/08/24 05:22:23;;;;;;;8.13;5.63;;;16.00;76.10;;;;;;5040057;28;20205;-87
2021/08/24 05:24:49;;;;;;;10.53;6.40;;;15.90;76.00;;;;;;5040400;28;20193;-86
2021/08/24 05:27:15;;;;;;;7.65;5.38;;;15.80;76.40;;;;;;5040601;28;20181;-85
2021/08/24 05:29:41;;;;;;;9.65;5.05;;;15.90;76.80;;;;;;5040532;28;20162;-86
2021/08/24 05:32:07;;;;;;;7.17;5.30;;;15.80;76.40;;;;;;5039548;28;20225;-85
2021/08/24 05:34:33;;;;;;;9.07;6.35;;;16.00;76.40;;;;;;5040706;28;20229;-86
2021/08/24 05:36:59;;;;;;;11.93;6.30;;;16.00;76.00;;;;;;5036881;28;20195;-88
2021/08/24 05:39:24;;;;;;;10.50;5.53;;;16.10;75.80;;;;;;5020909;28;20155;-86
2021/08/24 05:41:51;;;;;;;16.07;5.80;;;16.50;75.30;;;;;;5020300;28;20492;-86
2021/08/24 05:44:17;;;;;;;7.47;5.20;;;16.80;73.80;;;;;;5020782;28;20162;-85
2021/08/24 05:46:43;;;;;;;9.27;4.25;;;17.40;72.40;;;;;;5032535;28;20288;-85
2021/08/24 05:49:09;;;;;;;5.13;4.40;;;17.80;71.00;;;;;;5038946;28;20296;-86
2021/08/24 05:51:36;;;;;;;8.95;4.57;;;18.10;69.20;;;;;;5038258;28;20215;-87
2021/08/24 05:54:02;;;;;;;17.38;5.35;;;18.40;68.00;;;;;;5036733;28;20273;-88
2021/08/24 05:56:28;;;;;;;6.38;5.00;;;18.60;66.70;;;;;;5026495;28;20244;-88
2021/08/24 05:58:54;;;;;;;7.00;4.70;;;18.60;66.00;;;;;;5018348;28;20190;-90
2021/08/24 06:01:27;;;;;;;12.33;4.97;;;18.70;66.00;;;;;;5017154;28;20201;-88
2021/08/24 06:03:53;;;;;;;10.18;5.43;;;18.90;66.00;;;;;;5017254;28;20440;-88
2021/08/24 06:06:34;;;;;;;16.23;5.22;;;19.00;65.40;;;;;;5003741;28;20218;-88
2021/08/24 06:09:00;;;;;;;9.30;5.25;;;18.90;65.40;;;;;;5037034;28;20192;-88
2021/08/24 06:11:32;;;;;;;7.13;5.20;;;18.90;65.30;;;;;;5055636;28;20213;-88
2021/08/24 06:13:59;;;;;;;8.30;4.55;;;18.70;65.50;;;;;;5022404;28;20607;-88
2021/08/24 06:16:26;;;;;;;9.10;4.18;;;18.70;65.90;;;;;;5015907;28;20174;-88
2021/08/24 06:18:51;;;;;;;7.10;4.60;;;18.80;65.60;;;;;;5006605;28;20189;-88
2021/08/24 06:21:18;;;;;;;8.13;4.80;;;18.70;66.00;;;;;;4995902;28;20546;-88
2021/08/24 06:23:46;;;;;;;6.63;4.53;;;18.70;65.70;;;;;;4995951;28;20206;-88
2021/08/24 06:26:12;;;;;;;14.48;4.90;;;18.70;65.90;;;;;;4996058;28;20196;-88
2021/08/24 06:28:38;;;;;;;5.63;4.47;;;18.60;66.00;;;;;;4998305;28;20712;-87
2021/08/24 06:31:05;;;;;;;9.05;4.60;;;18.60;66.60;;;;;;5010672;28;20537;-88
2021/08/24 06:33:35;;;;;;;8.32;4.78;;;18.80;66.60;;;;;;5030132;28;20296;-88
2021/08/24 06:36:01;;;;;;;6.97;4.43;;;18.60;66.70;;;;;;5039394;28;20225;-88
2021/08/24 06:38:27;;;;;;;6.22;4.70;;;18.80;67.10;;;;;;5035585;28;20221;-87
2021/08/24 06:40:53;;;;;;;5.37;4.30;;;18.70;67.20;;;;;;5030812;28;20601;-86
2021/08/24 06:43:19;;;;;;;10.50;4.67;;;18.90;67.20;;;;;;5024045;28;20455;-87
2021/08/24 06:45:45;;;;;;;8.53;4.63;;;19.00;66.70;;;;;;5018629;28;20421;-88
2021/08/24 06:48:11;;;;;;;8.43;4.97;;;19.00;66.30;;;;;;5018004;28;20692;-87
2021/08/24 06:50:37;;;;;;;7.65;5.05;;;19.00;66.30;;;;;;5018402;28;20463;-87
2021/08/24 06:53:03;;;;;;;7.93;3.90;;;19.10;66.00;;;;;;5022947;28;20222;-87
2021/08/24 06:55:32;;;;;;;9.40;4.38;;;19.20;65.90;;;;;;5032390;28;20470;-86
2021/08/24 06:57:59;;;;;;;9.38;4.90;;;19.30;66.10;;;;;;5031504;28;20250;-86
2021/08/24 07:00:26;;;;;;;9.07;5.60;;;19.30;65.70;;;;;;5049901;28;20170;-86
2021/08/24 07:02:53;;;;;;;9.68;5.35;;;19.10;65.50;;;;;;5034306;28;20206;-85
2021/08/24 07:05:26;;;;;;;10.98;5.43;;;18.80;66.50;;;;;;5034903;28;20177;-86
2021/08/24 07:07:52;;;;;;;12.80;5.22;;;18.70;67.70;;;;;;5035270;28;20181;-84
2021/08/24 07:10:19;;;;;;;19.90;6.37;;;18.60;68.20;;;;;;5036789;28;20182;-86
2021/08/24 07:12:45;;;;;;;11.75;5.30;;;18.50;68.70;;;;;;5055034;28;20492;-83
2021/08/24 07:15:13;;;;;;;7.27;5.23;;;18.30;69.70;;;;;;5039611;28;20258;-84
2021/08/24 07:17:40;;;;;;;8.57;5.30;;;18.30;69.90;;;;;;5056661;28;20193;-86
2021/08/24 07:20:09;;;;;;;12.02;5.18;;;18.20;70.10;;;;;;5039409;28;20158;-85
2021/08/24 07:22:35;;;;;;;11.57;5.38;;;18.50;70.30;;;;;;5039107;28;20193;-84
2021/08/24 07:25:02;;;;;;;6.40;4.63;;;18.40;69.80;;;;;;5023014;28;20170;-84
2021/08/24 07:27:27;;;;;;;10.07;4.75;;;18.50;69.90;;;;;;5039291;28;20250;-87
2021/08/24 07:29:53;;;;;;;13.37;5.37;;;18.40;69.80;;;;;;5039348;28;20174;-83
2021/08/24 07:32:19;;;;;;;12.23;5.50;;;18.40;70.10;;;;;;5038921;28;20273;-86
2021/08/24 07:34:44;;;;;;;8.90;5.93;;;18.50;70.00;;;;;;5039456;28;20170;-83
2021/08/24 07:37:10;;;;;;;8.20;5.97;;;18.50;69.90;;;;;;5043113;28;20186;-85
2021/08/24 07:39:36;;;;;;;9.07;6.10;;;18.50;69.80;;;;;;5042494;28;20261;-83
2021/08/24 07:42:01;;;;;;;7.20;5.60;;;18.50;70.20;;;;;;5042593;28;20181;-85
2021/08/24 07:44:31;;;;;;;7.07;5.00;;;18.50;70.10;;;;;;5042971;28;20192;-90
2021/08/24 07:46:58;;;;;;;7.53;5.07;;;18.60;69.70;;;;;;5044549;28;20460;-88
2021/08/24 07:49:24;;;;;;;10.82;5.15;;;18.70;69.80;;;;;;5042794;28;20174;-88
2021/08/24 07:51:50;;;;;;;7.88;4.95;;;18.70;69.90;;;;;;5042094;28;20205;-90
2021/08/24 07:54:15;;;;;;;6.83;5.60;;;18.70;69.60;;;;;;5042226;28;20185;-85
2021/08/24 07:56:41;;;;;;;8.73;5.30;;;18.60;69.80;;;;;;5023028;28;20217;-85
2021/08/24 07:59:07;;;;;;;9.57;5.47;;;18.50;69.70;;;;;;5022862;28;20583;-85
2021/08/24 08:01:33;;;;;;;8.03;5.80;;;18.70;69.70;;;;;;5021263;28;20593;-85
2021/08/24 08:03:58;;;;;;;6.20;5.10;;;18.70;69.60;;;;;;5038117;28;20239;-85
2021/08/24 08:06:24;;;;;;;9.50;6.27;;;18.80;69.50;;;;;;5020909;28;20178;-85
2021/08/24 08:08:50;;;;;;;12.10;5.53;;;18.90;70.10;;;;;;5020855;28;20181;-85
2021/08/24 08:11:16;;;;;;;8.07;5.30;;;18.80;68.80;;;;;;5020377;28;20554;-86
2021/08/24 08:13:41;;;;;;;8.10;5.63;;;18.90;69.00;;;;;;5022394;28;20248;-85
2021/08/24 08:16:07;;;;;;;15.50;6.13;;;19.00;69.20;;;;;;5022097;28;20209;-86
2021/08/24 08:18:33;;;;;;;8.30;5.90;;;19.00;68.90;;;;;;5022756;28;20264;-85
2021/08/24 08:20:59;;;;;;;5.90;5.30;;;18.90;68.80;;;;;;5011903;28;20186;-85
2021/08/24 08:23:25;;;;;;;8.67;5.23;;;19.00;68.70;;;;;;5018893;28;20222;-86
2021/08/24 08:25:51;;;;;;;10.25;4.43;;;18.90;68.60;;;;;;5000373;28;20195;-85
2021/08/24 08:28:17;;;;;;;8.30;5.32;;;19.10;68.60;;;;;;4999858;28;20233;-85
2021/08/24 08:30:47;;;;;;;10.80;5.20;;;19.20;68.50;;;;;;5000703;28;20564;-85
2021/08/24 08:33:13;;;;;;;7.30;5.20;;;19.20;68.10;;;;;;4999635;28;20480;-85
2021/08/24 08:35:40;;;;;;;8.35;5.80;;;19.30;68.20;;;;;;4999413;28;20182;-86
2021/08/24 08:38:06;;;;;;;10.82;6.57;;;19.30;68.30;;;;;;5014798;28;20528;-86
2021/08/24 08:40:59;;;;;;;9.15;4.95;;;19.30;68.20;;;;;;5019831;28;20177;-85
2021/08/24 08:43:43;;;;;;;18.13;6.53;;;19.50;68.00;;;;;;5021834;28;20221;-86
2021/08/24 08:46:13;;;;;;;7.60;4.90;;;19.50;67.60;;;;;;5022224;28;20189;-85
2021/08/24 08:48:48;;;;;;;8.65;5.55;;;19.50;67.70;;;;;;5020470;28;20194;-85
2021/08/24 08:51:51;;;;;;;9.07;5.90;;;19.40;66.90;;;;;;5019759;28;20227;-86
2021/08/24 08:54:30;;;;;;;11.88;6.35;;;19.60;66.90;;;;;;4990696;28;20191;-86
2021/08/24 08:57:05;;;;;;;11.38;4.88;;;19.70;66.30;;;;;;5021268;28;20239;-85
2021/08/24 08:59:53;;;;;;;4.82;4.30;;;19.80;66.50;;;;;;5019833;28;20181;-85
2021/08/24 09:02:22;;;;;;;9.82;4.85;;;19.90;66.80;;;;;;5020131;28;20676;-85
2021/08/24 09:04:49;;;;;;;10.60;5.85;;;19.80;66.20;;;;;;5035781;28;20209;-85
2021/08/24 09:07:36;;;;;;;7.22;5.18;;;19.90;66.00;;;;;;5020246;28;20181;-86
2021/08/24 09:10:04;;;;;;;9.65;5.65;;;20.10;66.00;;;;;;5020214;28;20225;-86
2021/08/24 09:12:33;;;;;;;13.15;5.38;;;20.00;65.80;;;;;;5018070;28;20215;-85
2021/08/24 09:15:00;;;;;;;7.13;4.70;;;20.00;65.70;;;;;;5002180;28;20206;-85
2021/08/24 09:17:32;;;;;;;5.97;5.25;;;20.10;65.10;;;;;;5001088;28;20270;-84
2021/08/24 09:20:17;;;;;;;6.72;5.28;;;20.20;64.80;;;;;;5000880;28;20265;-84
2021/08/24 09:22:43;;;;;;;7.53;4.35;;;20.40;63.70;;;;;;5000530;28;20205;-86
2021/08/24 09:25:29;;;;;;;8.23;4.05;;;20.40;62.80;;;;;;5000449;28;20268;-86
2021/08/24 09:28:13;;;;;;;10.07;5.15;;;20.50;62.90;;;;;;5001410;28;20185;-85
2021/08/24 09:30:43;;;;;;;5.18;4.68;;;20.50;62.30;;;;;;5000808;28;20186;-85
2021/08/24 09:33:10;;;;;;;8.35;4.57;;;20.50;61.80;;;;;;4998375;28;20272;-87
2021/08/24 09:35:46;;;;;;;8.20;5.65;;;20.70;62.30;;;;;;4995930;28;20186;-88
2021/08/24 09:38:16;;;;;;;8.70;4.47;;;20.80;62.20;;;;;;5029150;28;20527;-87
2021/08/24 09:41:10;;;;;;;4.85;3.90;;;21.00;63.20;;;;;;5017958;28;20672;-88
2021/08/24 09:43:38;;;;;;;6.10;4.72;;;21.10;62.60;;;;;;4973199;28;20206;-88
2021/08/24 09:46:26;;;;;;;9.77;5.85;;;21.10;62.10;;;;;;5018633;28;20178;-88
2021/08/24 09:49:08;;;;;;;6.20;4.77;;;20.90;62.00;;;;;;5029317;28;20177;-88
2021/08/24 09:51:45;;;;;;;8.47;4.63;;;21.00;60.80;;;;;;5020380;28;20495;-88
2021/08/24 09:54:27;;;;;;;7.55;4.30;;;21.00;61.10;;;;;;5016206;28;20855;-88
2021/08/24 09:56:57;;;;;;;6.20;4.15;;;21.00;61.10;;;;;;5001569;28;20234;-87
2021/08/24 09:59:27;;;;;;;5.15;4.00;;;21.10;60.90;;;;;;5019310;28;20246;-88
2021/08/24 10:01:54;;;;;;;6.63;4.27;;;21.20;60.70;;;;;;5018900;28;20241;-88
2021/08/24 10:04:20;;;;;;;18.38;4.70;;;21.30;60.70;;;;;;5003525;28;20421;-88
2021/08/24 10:08:14;;;;;;;5.43;3.90;;;21.30;60.70;;;;;;4999459;28;20193;-87
2021/08/24 10:10:22;;;;;;;6.43;4.93;;;21.40;60.50;;;;;;5013298;28;20428;-88
2021/08/24 10:12:51;;;;;;;7.13;4.40;;;21.40;60.20;;;;;;4998017;28;20568;-89
2021/08/24 10:15:28;;;;;;;7.30;4.17;;;21.40;59.50;;;;;;4997903;28;20732;-88
2021/08/24 10:18:04;;;;;;;22.60;5.03;;;21.50;59.30;;;;;;4998029;28;20410;-87
2021/08/24 10:20:57;;;;;;;5.27;4.00;;;21.50;59.70;;;;;;4997883;28;20837;-88
2021/08/24 10:23:28;;;;;;;9.20;5.47;;;21.50;58.30;;;;;;5006604;28;20437;-88
2021/08/24 10:25:57;;;;;;;5.47;3.97;;;21.60;58.10;;;;;;5003952;28;20492;-88
2021/08/24 10:28:54;;;;;;;5.53;4.00;;;21.50;58.10;;;;;;5018438;28;20402;-88
2021/08/24 10:31:38;;;;;;;5.37;3.70;;;21.60;57.80;;;;;;4982928;28;20482;-88
2021/08/24 10:34:25;;;;;;;12.37;3.90;;;21.70;59.00;;;;;;4997566;28;20524;-88
2021/08/24 10:36:52;;;;;;;4.70;3.10;;;21.70;57.10;;;;;;5000705;28;20410;-88
2021/08/24 10:39:24;;;;;;;4.43;3.37;;;21.80;55.00;;;;;;5017797;28;20428;-88
2021/08/24 10:42:18;;;;;;;6.63;3.60;;;21.80;54.70;;;;;;5018857;28;20739;-88
2021/08/24 10:44:50;;;;;;;8.63;3.27;;;21.90;56.10;;;;;;5017257;28;20419;-88
2021/08/24 10:47:24;;;;;;;4.93;2.90;;;22.00;54.80;;;;;;5034841;28;20428;-88
2021/08/24 10:49:52;;;;;;;4.40;2.73;;;22.00;54.60;;;;;;5021830;28;20843;-88
2021/08/24 10:52:36;;;;;;;4.13;3.10;;;22.10;54.60;;;;;;5018920;28;20590;-87
2021/08/24 10:55:20;;;;;;;5.10;2.83;;;22.30;54.60;;;;;;5017062;28;20488;-88
2021/08/24 10:57:55;;;;;;;3.73;3.40;;;22.40;53.90;;;;;;4999817;28;20408;-88
2021/08/24 11:00:28;;;;;;;4.90;3.40;;;22.50;53.30;;;;;;5002923;28;20420;-88
2021/08/24 11:03:00;;;;;;;6.90;3.23;;;22.50;53.00;;;;;;5000715;28;20872;-88
2021/08/24 11:05:30;;;;;;;3.63;3.30;;;22.50;53.00;;;;;;5001933;28;20489;-87
2021/08/24 11:08:05;;;;;;;4.90;3.00;;;22.60;52.90;;;;;;4998338;28;20770;-88
2021/08/24 11:10:30;;;;;;;4.60;2.93;;;22.60;53.10;;;;;;5000917;28;20448;-88
2021/08/24 11:13:30;;;;;;;5.70;2.97;;;22.60;52.50;;;;;;5006850;28;20995;-87
2021/08/24 11:16:09;;;;;;;3.50;3.20;;;22.60;51.50;;;;;;4999364;28;20189;-88
2021/08/24 11:18:52;;;;;;;2.90;2.50;;;22.40;51.00;;;;;;5017549;28;20811;-89
2021/08/24 11:21:35;;;;;;;8.50;4.00;;;22.50;51.20;;;;;;5007662;28;20421;-88
2021/08/24 11:24:12;;;;;;;6.37;3.20;;;22.60;51.70;;;;;;5009949;28;20871;-90
2021/08/24 11:26:38;;;;;;;6.20;3.10;;;22.60;51.20;;;;;;5007659;28;20424;-88
2021/08/24 11:29:28;;;;;;;4.13;2.63;;;22.70;50.60;;;;;;5010648;28;20416;-87
2021/08/24 11:32:07;;;;;;;3.80;2.57;;;22.70;49.80;;;;;;5011189;28;20222;-89
2021/08/24 11:34:56;;;;;;;4.83;2.90;;;22.90;50.30;;;;;;5014146;28;20442;-88
2021/08/24 11:37:55;;;;;;;5.97;3.03;;;23.10;50.80;;;;;;5015750;28;20409;-90
2021/08/24 11:40:25;;;;;;;3.50;3.17;;;23.30;50.00;;;;;;5021417;28;20509;-87
2021/08/24 11:42:59;;;;;;;5.93;2.80;;;23.20;49.30;;;;;;5036232;28;20471;-89
2021/08/24 11:45:37;;;;;;;4.70;3.00;;;23.30;48.00;;;;;;5043251;28;20420;-88
2021/08/24 11:48:27;;;;;;;7.67;3.17;;;23.20;47.60;;;;;;5042104;28;20493;-88
2021/08/24 11:51:06;;;;;;;4.40;2.87;;;23.10;48.40;;;;;;5029100;28;20425;-90
2021/08/24 11:53:47;;;;;;;4.77;3.00;;;23.10;48.70;;;;;;5042557;28;20475;-90
2021/08/24 11:56:24;;;;;;;5.23;3.53;;;23.20;48.80;;;;;;5042793;28;20424;-89
2021/08/24 11:58:50;;;;;;;3.00;2.70;;;23.10;48.60;;;;;;5042635;28;20424;-88
2021/08/24 12:01:21;;;;;;;7.03;2.50;;;23.20;48.00;;;;;;5041214;28;20459;-90
2021/08/24 12:03:55;;;;;;;3.77;3.47;;;23.10;48.00;;;;;;5041476;28;20563;-87
2021/08/24 12:07:00;;;;;;;6.10;3.03;;;23.20;48.20;;;;;;5057827;28;20437;-87
2021/08/24 12:09:46;;;;;;;4.70;2.80;;;23.00;48.60;;;;;;5021273;28;20420;-87
2021/08/24 12:12:44;;;;;;;4.30;2.83;;;23.00;48.90;;;;;;5011579;28;20466;-87
2021/08/24 12:15:26;;;;;;;7.63;2.90;;;23.00;48.50;;;;;;5026365;28;20927;-87
2021/08/24 12:18:19;;;;;;;4.50;2.60;;;22.90;48.10;;;;;;5029917;28;20415;-88
2021/08/24 12:20:50;;;;;;;3.57;2.57;;;22.90;48.30;;;;;;5011669;28;20423;-88
2021/08/24 12:23:37;;;;;;;3.47;2.80;;;22.90;48.50;;;;;;5010086;28;20452;-88
2021/08/24 12:26:27;;;;;;;3.30;2.20;;;23.10;48.60;;;;;;5026918;28;20424;-87
2021/08/24 12:28:56;;;;;;;6.70;3.37;;;23.30;48.20;;;;;;4989494;28;20519;-87
2021/08/24 12:31:30;;;;;;;4.43;3.07;;;23.20;49.00;;;;;;5008325;28;20421;-87
2021/08/24 12:33:56;;;;;;;4.60;2.80;;;23.20;49.30;;;;;;5006008;28;20456;-87
2021/08/24 12:36:21;;;;;;;4.00;3.00;;;23.20;48.40;;;;;;5003742;28;20423;-87
2021/08/24 12:38:56;;;;;;;3.47;2.90;;;23.10;47.10;;;;;;5007326;28;20469;-87
2021/08/24 12:41:34;;;;;;;5.07;2.90;;;23.20;47.90;;;;;;5008732;28;20452;-87
2021/08/24 12:44:12;;;;;;;10.83;2.53;;;23.40;48.00;;;;;;5004251;28;20493;-88
2021/08/24 12:46:44;;;;;;;4.30;2.50;;;23.40;48.60;;;;;;5007316;28;20453;-85
2021/08/24 12:49:24;;;;;;;2.47;2.23;;;23.40;48.40;;;;;;5017117;28;20413;-88
2021/08/24 12:51:51;;;;;;;3.97;2.50;;;23.20;46.90;;;;;;5025729;28;20500;-87
2021/08/24 12:54:21;;;;;;;8.43;3.30;;;23.30;47.60;;;;;;5029789;28;20482;-88
2021/08/24 12:57:09;;;;;;;5.73;3.07;;;23.50;46.60;;;;;;5025184;28;20471;-87
2021/08/24 12:59:40;;;;;;;3.97;2.70;;;23.30;46.90;;;;;;4993686;28;20419;-87
2021/08/24 13:02:32;;;;;;;3.20;2.40;;;23.30;46.50;;;;;;5018212;28;20448;-87
2021/08/24 13:05:13;;;;;;;5.70;3.40;;;23.30;46.30;;;;;;4998217;28;20975;-87
2021/08/24 13:07:57;;;;;;;4.40;2.93;;;23.40;46.20;;;;;;4997559;28;20425;-88
2021/08/24 13:10:41;;;;;;;3.83;2.60;;;23.60;46.30;;;;;;4999648;28;20585;-86